This is the latest recevied weather packets stored in our database for station/object HS9UAC-10. If no packets are shown the sender has not sent any weather packets the latest 10 day(s).
| Time | Temp. | Humidity | Pressure | Rain* | Wind** | Luminosity | Snow |
|---|---|---|---|---|---|---|---|
| 1778050424 | 38.89° C | 56% | 1005 hPa | - | - | 0 W/m² | - |
| 1778049499 | 39.44° C | 52% | 1006 hPa | - | - | 0 W/m² | - |
| 1778048575 | 38.89° C | 53% | 1006 hPa | - | - | 0 W/m² | - |
| 1778047650 | 40° C | 50% | 1006 hPa | - | - | 0 W/m² | - |
| 1778046725 | 38.89° C | 51% | 1007 hPa | - | - | 0 W/m² | - |
| 1778045801 | 38.89° C | 52% | 1007 hPa | - | - | 0 W/m² | - |
| 1778044876 | 38.33° C | 56% | 1007 hPa | - | - | 0 W/m² | - |
| 1778043952 | 38.89° C | 56% | 1007 hPa | - | - | 0 W/m² | - |
| 1778043027 | 37.78° C | 64% | 1007 hPa | - | - | 0 W/m² | - |
| 1778042103 | 38.89° C | 61% | 1008 hPa | - | - | 0 W/m² | - |
| 1778041178 | 37.22° C | 63% | 1008 hPa | - | - | 0 W/m² | - |
| 1778040253 | 37.78° C | 65% | 1008 hPa | - | - | 0 W/m² | - |
| 1778039329 | 37.22° C | 68% | 1008 hPa | - | - | 0 W/m² | - |
| 1778038404 | 37.22° C | 69% | 1008 hPa | - | - | 0 W/m² | - |
| 1778037479 | 36.11° C | 73% | 1008 hPa | - | - | 0 W/m² | - |
| 1778036555 | 36.11° C | 72% | 1008 hPa | - | - | 0 W/m² | - |
| 1778035630 | 36.11° C | 72% | 1008 hPa | - | - | 0 W/m² | - |
| 1778034706 | 35° C | 77% | 1008 hPa | - | - | 0 W/m² | - |
| 1778033781 | 35° C | 77% | 1008 hPa | - | - | 0 W/m² | - |
| 1778032857 | 36.67° C | 70% | 1008 hPa | - | - | 0 W/m² | - |
| 1778031932 | 37.22° C | 70% | 1008 hPa | - | - | 0 W/m² | - |
| 1778031007 | 36.67° C | 73% | 1008 hPa | - | - | 0 W/m² | - |
| 1778030083 | 36.67° C | 75% | 1008 hPa | - | - | 0 W/m² | - |
| 1778029159 | 36.11° C | 79% | 1007 hPa | - | - | 0 W/m² | - |
| 1778028234 | 35° C | 84% | 1007 hPa | - | - | 0 W/m² | - |
* Rain since midnight (hover to see other rain measurements)
** Current wind speed in m/s (hover to see current wind gust speed)